createdAt,value
2022-10-12T00:01:14.031Z,9.93
2022-10-12T00:03:41.825Z,9.83
2022-10-12T00:06:22.741Z,10.17
2022-10-12T00:08:54.914Z,10.23
2022-10-12T00:11:29.185Z,10.10
2022-10-12T00:13:59.178Z,9.40
2022-10-12T00:16:31.972Z,9.13
2022-10-12T00:19:00.004Z,7.93
2022-10-12T00:21:31.302Z,9.30
2022-10-12T00:24:01.926Z,10.30
2022-10-12T00:26:30.460Z,9.00
2022-10-12T00:29:02.981Z,8.77
2022-10-12T00:31:32.655Z,9.10
2022-10-12T00:34:03.897Z,10.60
2022-10-12T00:36:36.088Z,11.97
2022-10-12T00:39:09.771Z,8.20
2022-10-12T00:41:44.636Z,9.60
2022-10-12T00:44:47.917Z,10.20
2022-10-12T00:47:33.106Z,9.13
2022-10-12T00:50:29.622Z,9.77
2022-10-12T00:53:21.582Z,11.53
2022-10-12T00:55:59.739Z,9.97
2022-10-12T00:58:31.664Z,9.53
2022-10-12T01:01:06.348Z,9.87
2022-10-12T01:03:36.588Z,8.77
2022-10-12T01:06:07.799Z,9.83
2022-10-12T01:08:37.372Z,8.50
2022-10-12T01:11:05.781Z,9.43
2022-10-12T01:13:34.144Z,9.77
2022-10-12T01:17:04.847Z,11.13
2022-10-12T01:20:09.589Z,9.00
2022-10-12T01:23:17.525Z,9.30
2022-10-12T01:26:36.035Z,10.13
2022-10-12T01:30:27.488Z,10.30
2022-10-12T01:33:41.006Z,10.60
2022-10-12T01:36:42.995Z,10.60
2022-10-12T01:39:33.454Z,10.10
2022-10-12T01:42:17.996Z,10.90
2022-10-12T01:44:46.242Z,11.60
2022-10-12T01:47:14.522Z,9.97
2022-10-12T01:49:42.468Z,11.60
2022-10-12T01:52:30.850Z,10.00
2022-10-12T01:55:45.937Z,10.40
2022-10-12T01:59:04.634Z,10.13
2022-10-12T02:02:03.836Z,10.10
2022-10-12T02:05:09.060Z,9.40
2022-10-12T02:07:52.107Z,10.67
2022-10-12T02:10:40.993Z,8.97
2022-10-12T02:13:17.292Z,10.03
2022-10-12T02:15:48.120Z,11.47
2022-10-12T02:18:22.829Z,10.83
2022-10-12T02:20:58.510Z,11.10
2022-10-12T02:23:29.483Z,11.10
2022-10-12T02:26:01.885Z,10.20
2022-10-12T02:28:36.284Z,10.67
2022-10-12T02:31:47.796Z,10.53
2022-10-12T02:34:38.467Z,9.93
2022-10-12T02:37:36.982Z,9.83
2022-10-12T02:40:45.697Z,10.20
2022-10-12T02:43:54.168Z,9.57
2022-10-12T02:46:27.225Z,11.30
2022-10-12T02:48:59.549Z,9.90
2022-10-12T02:51:30.443Z,10.60
2022-10-12T02:53:58.756Z,9.97
2022-10-12T02:56:26.452Z,9.20
2022-10-12T02:58:57.518Z,10.27
2022-10-12T03:01:25.336Z,10.67
2022-10-12T03:03:53.041Z,11.17
2022-10-12T03:06:20.742Z,10.20
2022-10-12T03:08:48.484Z,9.60
2022-10-12T03:11:16.347Z,9.23
2022-10-12T03:13:44.140Z,10.50
2022-10-12T03:16:12.852Z,10.77
2022-10-12T03:18:41.581Z,11.20
2022-10-12T03:21:10.989Z,8.40
2022-10-12T03:23:39.001Z,10.80
2022-10-12T03:26:07.824Z,9.30
2022-10-12T03:28:36.288Z,10.00
2022-10-12T03:31:04.596Z,12.40
2022-10-12T03:33:32.266Z,11.30
2022-10-12T03:35:59.889Z,11.03
2022-10-12T03:38:27.616Z,9.83
2022-10-12T03:40:55.223Z,11.07
2022-10-12T03:43:23.101Z,10.87
2022-10-12T03:45:52.472Z,12.03
2022-10-12T03:48:21.821Z,10.87
2022-10-12T03:50:53.858Z,9.97
2022-10-12T03:53:21.708Z,11.30
2022-10-12T03:55:49.545Z,11.17
2022-10-12T03:58:17.408Z,12.33
2022-10-12T04:00:46.055Z,11.47
2022-10-12T04:03:13.633Z,11.30
2022-10-12T04:05:41.931Z,10.60
2022-10-12T04:08:09.615Z,13.00
2022-10-12T04:10:37.236Z,11.83
2022-10-12T04:13:04.907Z,11.60
2022-10-12T04:15:32.574Z,12.03
2022-10-12T04:18:00.148Z,12.27
2022-10-12T04:20:28.416Z,12.53
2022-10-12T04:22:56.088Z,11.83
2022-10-12T04:25:29.150Z,12.10
2022-10-12T04:27:58.033Z,11.40
2022-10-12T04:30:25.678Z,10.50
2022-10-12T04:32:53.678Z,11.20
2022-10-12T04:35:22.829Z,12.87
2022-10-12T04:37:51.183Z,12.27
2022-10-12T04:40:19.292Z,12.30
2022-10-12T04:42:47.442Z,11.23
2022-10-12T04:45:15.699Z,11.60
2022-10-12T04:47:43.531Z,12.20
2022-10-12T04:50:11.461Z,11.70
2022-10-12T04:52:39.165Z,11.10
2022-10-12T04:55:08.483Z,11.57
2022-10-12T04:57:36.589Z,12.60
2022-10-12T05:00:07.966Z,12.93
2022-10-12T05:02:35.677Z,11.97
2022-10-12T05:05:03.521Z,11.57
2022-10-12T05:07:31.260Z,11.97
2022-10-12T05:09:58.958Z,12.30
2022-10-12T05:12:26.617Z,11.57
2022-10-12T05:14:54.281Z,10.40
2022-10-12T05:17:22.125Z,12.50
2022-10-12T05:19:49.780Z,10.40
2022-10-12T05:22:17.958Z,11.53
2022-10-12T05:24:47.992Z,11.37
2022-10-12T05:27:18.987Z,11.30
2022-10-12T05:29:46.657Z,11.57
2022-10-12T05:32:14.717Z,12.60
2022-10-12T05:34:42.457Z,13.20
2022-10-12T05:37:10.868Z,13.63
2022-10-12T05:39:38.480Z,13.30
2022-10-12T05:42:06.473Z,12.83
2022-10-12T05:44:34.378Z,12.00
2022-10-12T05:47:01.967Z,11.60
2022-10-12T05:49:30.917Z,13.47
2022-10-12T05:51:58.694Z,11.60
2022-10-12T05:54:29.224Z,12.67
2022-10-12T05:56:57.316Z,13.60
2022-10-12T05:59:25.249Z,12.97
2022-10-12T06:01:53.011Z,11.97
2022-10-12T06:04:21.013Z,12.33
2022-10-12T06:06:49.323Z,13.10
2022-10-12T06:09:16.969Z,13.50
2022-10-12T06:11:44.616Z,12.60
2022-10-12T06:14:12.222Z,13.30
2022-10-12T06:16:39.873Z,13.83
2022-10-12T06:19:10.669Z,13.90
2022-10-12T06:21:38.919Z,13.80
2022-10-12T06:24:06.984Z,14.97
2022-10-12T06:26:34.833Z,14.47
2022-10-12T06:29:03.490Z,15.03
2022-10-12T06:31:32.507Z,14.00
2022-10-12T06:34:00.589Z,14.37
2022-10-12T06:36:28.286Z,17.30
2022-10-12T06:38:56.328Z,16.13
2022-10-12T06:41:24.022Z,15.90
2022-10-12T06:43:51.780Z,15.07
2022-10-12T06:46:19.327Z,13.60
2022-10-12T06:48:47.007Z,16.50
2022-10-12T06:51:14.617Z,15.57
2022-10-12T06:53:42.220Z,17.83
2022-10-12T06:56:12.164Z,17.57
2022-10-12T06:58:40.619Z,16.00
2022-10-12T07:01:10.934Z,15.03
2022-10-12T07:03:38.709Z,13.90
2022-10-12T07:06:14.164Z,14.07
2022-10-12T07:08:43.494Z,13.53
2022-10-12T07:11:13.973Z,13.30
2022-10-12T07:13:42.262Z,13.93
2022-10-12T07:16:09.952Z,14.30
2022-10-12T07:18:40.243Z,12.27
2022-10-12T07:21:08.018Z,13.27
2022-10-12T07:23:41.325Z,12.50
2022-10-12T07:26:12.830Z,24.13
2022-10-12T07:28:40.766Z,20.43
2022-10-12T07:31:10.147Z,20.50
2022-10-12T07:33:39.013Z,18.70
2022-10-12T07:36:20.850Z,17.27
2022-10-12T07:38:50.448Z,15.20
2022-10-12T07:41:19.333Z,13.70
2022-10-12T07:43:48.046Z,13.23
2022-10-12T07:46:15.899Z,12.90
2022-10-12T07:48:48.938Z,11.03
2022-10-12T07:51:20.594Z,11.90
2022-10-12T07:53:51.447Z,9.37
2022-10-12T07:56:21.201Z,7.67
2022-10-12T07:59:00.265Z,8.73
2022-10-12T08:01:33.257Z,8.40
2022-10-12T08:04:02.985Z,7.67
2022-10-12T08:06:35.126Z,7.00
2022-10-12T08:09:06.479Z,6.57
2022-10-12T08:11:45.441Z,5.90
2022-10-12T08:14:19.249Z,7.37
2022-10-12T08:16:49.634Z,6.47
2022-10-12T08:19:20.069Z,7.40
2022-10-12T08:21:51.688Z,6.37
2022-10-12T08:24:20.829Z,6.47
2022-10-12T08:26:50.630Z,8.10
2022-10-12T08:29:19.724Z,7.20
2022-10-12T08:31:50.832Z,8.20
2022-10-12T08:34:20.913Z,6.40
2022-10-12T08:36:52.533Z,7.57
2022-10-12T08:39:21.623Z,7.77
2022-10-12T08:42:41.298Z,8.20
2022-10-12T08:45:59.176Z,8.40
2022-10-12T08:48:50.652Z,7.70
2022-10-12T08:51:30.175Z,8.57
2022-10-12T08:54:13.793Z,7.50
2022-10-12T08:56:44.306Z,6.50
2022-10-12T08:59:20.721Z,5.00
2022-10-12T09:02:53.436Z,5.00
2022-10-12T09:05:50.777Z,5.10
2022-10-12T09:09:01.093Z,5.03
2022-10-12T09:12:14.049Z,4.67
2022-10-12T09:14:46.144Z,4.70
2022-10-12T09:17:57.186Z,4.23
2022-10-12T09:20:50.718Z,4.93
2022-10-12T09:23:44.919Z,5.10
2022-10-12T09:26:35.095Z,4.23
2022-10-12T09:29:27.516Z,4.60
2022-10-12T09:32:40.264Z,3.80
2022-10-12T09:35:16.516Z,4.27
2022-10-12T09:37:54.723Z,4.30
2022-10-12T09:40:33.609Z,5.37
2022-10-12T09:43:06.808Z,4.40
2022-10-12T09:45:38.946Z,5.07
2022-10-12T09:48:25.787Z,6.07
2022-10-12T09:51:02.835Z,5.60
2022-10-12T09:53:55.340Z,6.60
2022-10-12T09:56:50.764Z,5.67
2022-10-12T09:59:46.199Z,6.77
2022-10-12T10:02:27.994Z,6.57
2022-10-12T10:05:23.557Z,6.50
2022-10-12T10:07:53.321Z,6.50
2022-10-12T10:10:30.058Z,6.20
2022-10-12T10:13:04.291Z,7.07
2022-10-12T10:15:39.859Z,8.33
2022-10-12T10:18:57.043Z,5.60
2022-10-12T10:21:40.956Z,5.97
2022-10-12T10:24:32.879Z,6.87
2022-10-12T10:27:08.613Z,5.70
2022-10-12T10:29:46.125Z,6.10
2022-10-12T10:32:29.841Z,6.47
2022-10-12T10:35:14.774Z,5.83
2022-10-12T10:37:57.619Z,5.60
2022-10-12T10:40:36.673Z,5.40
2022-10-12T10:43:31.663Z,5.23
2022-10-12T10:46:04.826Z,6.43
2022-10-12T10:49:07.575Z,4.77
2022-10-12T10:51:58.458Z,4.10
2022-10-12T10:54:41.114Z,4.90
2022-10-12T10:57:23.667Z,5.10
2022-10-12T11:00:33.358Z,3.90
2022-10-12T11:03:06.896Z,4.53
2022-10-12T11:06:40.950Z,4.10
2022-10-12T11:09:46.454Z,4.10
2022-10-12T11:12:53.168Z,3.70
2022-10-12T11:16:02.914Z,4.00
2022-10-12T11:18:59.212Z,3.83
2022-10-12T11:22:08.278Z,3.87
2022-10-12T11:25:21.856Z,3.73
2022-10-12T11:27:53.947Z,3.90
2022-10-12T11:30:39.758Z,3.80
2022-10-12T11:33:30.274Z,4.00
2022-10-12T11:36:00.145Z,5.37
2022-10-12T11:39:13.532Z,3.90
2022-10-12T11:42:16.850Z,3.63
2022-10-12T11:44:49.025Z,3.17
2022-10-12T11:47:49.203Z,3.37
2022-10-12T11:50:45.152Z,2.53
2022-10-12T11:54:00.311Z,3.27
2022-10-12T11:56:47.862Z,3.10
2022-10-12T11:59:59.939Z,2.67
2022-10-12T12:02:53.473Z,2.60
2022-10-12T12:05:33.124Z,3.40
2022-10-12T12:08:01.256Z,2.77
2022-10-12T12:10:35.613Z,2.57
2022-10-12T12:13:18.521Z,2.80
2022-10-12T12:15:48.290Z,2.67
2022-10-12T12:18:35.393Z,2.20
2022-10-12T12:21:10.894Z,2.50
2022-10-12T12:23:55.266Z,2.13
2022-10-12T12:26:31.369Z,2.77
2022-10-12T12:29:27.440Z,2.63
2022-10-12T12:32:00.398Z,2.07
2022-10-12T12:34:29.392Z,2.37
2022-10-12T12:36:58.576Z,2.53
2022-10-12T12:39:35.853Z,2.00
2022-10-12T12:42:10.923Z,2.63
2022-10-12T12:44:45.076Z,3.33
2022-10-12T12:50:36.131Z,2.87
2022-10-12T12:53:22.238Z,2.50
2022-10-12T12:56:28.718Z,2.30
2022-10-12T13:00:07.488Z,2.00
2022-10-12T13:03:15.215Z,2.70
2022-10-12T13:06:36.263Z,2.13
2022-10-12T13:09:51.454Z,2.23
2022-10-12T13:13:15.272Z,2.97
2022-10-12T13:16:05.834Z,3.63
2022-10-12T13:19:10.125Z,2.63
2022-10-12T13:21:51.959Z,3.00
2022-10-12T13:24:57.259Z,3.00
2022-10-12T13:27:46.994Z,3.40
2022-10-12T13:30:47.294Z,4.40
2022-10-12T13:34:27.486Z,2.60
2022-10-12T13:37:12.232Z,2.50
2022-10-12T13:39:48.284Z,2.77
2022-10-12T13:42:34.599Z,3.27
2022-10-12T13:45:09.143Z,2.97
2022-10-12T13:47:43.768Z,3.73
2022-10-12T13:50:30.138Z,2.70
2022-10-12T13:52:57.832Z,6.10
2022-10-12T13:55:27.310Z,3.80
2022-10-12T13:57:55.081Z,3.77
2022-10-12T14:00:26.792Z,4.23
2022-10-12T14:03:05.069Z,2.90
2022-10-12T14:05:44.213Z,4.10
2022-10-12T14:08:26.811Z,2.90
2022-10-12T14:10:59.967Z,3.70
2022-10-12T14:13:35.366Z,3.57
2022-10-12T14:16:06.330Z,2.93
2022-10-12T14:18:54.301Z,3.17
2022-10-12T14:21:33.391Z,2.80
2022-10-12T14:24:11.041Z,4.40
2022-10-12T14:26:56.832Z,2.93
2022-10-12T14:29:46.931Z,3.77
2022-10-12T14:32:15.067Z,3.10
2022-10-12T14:35:03.494Z,3.43
2022-10-12T14:37:32.079Z,2.90
2022-10-12T14:40:36.435Z,3.87
2022-10-12T14:43:13.040Z,3.90
2022-10-12T14:45:41.649Z,4.17
2022-10-12T14:48:23.817Z,3.90
2022-10-12T14:50:52.460Z,4.37
2022-10-12T14:53:21.169Z,4.30
2022-10-12T14:55:50.975Z,4.40
2022-10-12T14:58:21.608Z,4.03
2022-10-12T15:00:49.570Z,4.50
2022-10-12T15:03:18.188Z,5.77
2022-10-12T15:05:45.863Z,3.73
2022-10-12T15:08:13.550Z,4.63
2022-10-12T15:10:41.130Z,4.30
2022-10-12T15:13:14.357Z,4.50
2022-10-12T15:15:50.904Z,4.50
2022-10-12T15:18:19.125Z,4.50
2022-10-12T15:20:49.965Z,4.27
2022-10-12T15:23:20.203Z,4.37
2022-10-12T15:25:56.840Z,4.90
2022-10-12T15:28:24.647Z,4.23
2022-10-12T15:33:43.492Z,5.00
2022-10-12T15:36:11.607Z,4.37
2022-10-12T15:38:39.806Z,4.63
2022-10-12T15:41:18.657Z,4.60
2022-10-12T15:43:46.425Z,5.33
2022-10-12T15:46:14.197Z,5.30
2022-10-12T15:48:44.034Z,4.43
2022-10-12T15:51:25.259Z,4.23
2022-10-12T15:53:55.177Z,5.10
2022-10-12T15:56:23.482Z,4.50
2022-10-12T15:58:51.369Z,4.87
2022-10-12T16:01:21.326Z,4.90
2022-10-12T16:03:50.352Z,3.90
2022-10-12T16:06:18.568Z,4.93
2022-10-12T16:08:46.219Z,5.20
2022-10-12T16:11:18.798Z,4.90
2022-10-12T16:13:55.481Z,5.10
2022-10-12T16:16:24.802Z,5.10
2022-10-12T16:18:54.101Z,5.03
2022-10-12T16:21:21.879Z,5.33
2022-10-12T16:23:49.719Z,5.10
2022-10-12T16:26:17.765Z,4.10
2022-10-12T16:28:46.014Z,5.17
2022-10-12T16:31:18.252Z,4.83
2022-10-12T16:33:46.260Z,6.13
2022-10-12T16:36:17.264Z,5.40
2022-10-12T16:38:45.699Z,6.10
2022-10-12T16:41:17.501Z,4.77
2022-10-12T16:43:46.002Z,5.77
2022-10-12T16:46:13.669Z,6.30
2022-10-12T16:48:41.362Z,4.83
2022-10-12T16:51:12.391Z,6.07
2022-10-12T16:53:42.522Z,5.60
2022-10-12T16:56:10.836Z,5.17
2022-10-12T16:58:38.404Z,5.00
2022-10-12T17:01:14.295Z,6.10
2022-10-12T17:03:42.533Z,6.40
2022-10-12T17:06:10.989Z,5.30
2022-10-12T17:08:41.951Z,5.93
2022-10-12T17:11:17.241Z,5.37
2022-10-12T17:13:48.920Z,6.43
2022-10-12T17:16:37.585Z,7.03
2022-10-12T17:19:11.180Z,5.93
2022-10-12T17:21:42.232Z,7.63
2022-10-12T17:24:14.768Z,6.80
2022-10-12T17:26:42.866Z,6.67
2022-10-12T17:29:18.449Z,6.90
2022-10-12T17:31:49.220Z,8.23
2022-10-12T17:34:30.400Z,7.20
2022-10-12T17:37:01.922Z,7.13
2022-10-12T17:39:37.093Z,7.20
2022-10-12T17:42:06.992Z,6.93
2022-10-12T17:44:35.779Z,9.13
2022-10-12T17:47:04.207Z,9.57
2022-10-12T17:49:32.437Z,10.73
2022-10-12T17:52:00.617Z,9.90
2022-10-12T17:54:28.361Z,10.07
2022-10-12T17:56:57.371Z,8.20
2022-10-12T17:59:26.600Z,8.50
2022-10-12T18:01:55.095Z,9.43
2022-10-12T18:04:22.827Z,9.20
2022-10-12T18:06:50.472Z,9.40
2022-10-12T18:09:18.307Z,12.03
2022-10-12T18:11:46.074Z,11.67
2022-10-12T18:14:13.964Z,12.20
2022-10-12T18:16:42.639Z,11.37
2022-10-12T18:19:11.781Z,11.47
2022-10-12T18:21:40.229Z,10.40
2022-10-12T18:24:16.484Z,10.40
2022-10-12T18:26:47.942Z,11.60
2022-10-12T18:29:18.362Z,11.90
2022-10-12T18:31:46.139Z,14.10
2022-10-12T18:34:13.774Z,13.83
2022-10-12T18:36:42.897Z,15.17
2022-10-12T18:39:10.678Z,14.20
2022-10-12T18:41:38.560Z,13.13
2022-10-12T18:44:06.797Z,13.77
2022-10-12T18:46:37.407Z,13.33
2022-10-12T18:49:09.438Z,14.67
2022-10-12T18:51:46.201Z,15.93
2022-10-12T18:54:17.136Z,15.77
2022-10-12T18:56:45.819Z,22.03
2022-10-12T18:59:17.925Z,30.83
2022-10-12T19:01:47.492Z,34.40
2022-10-12T19:04:15.401Z,30.37
2022-10-12T19:06:44.075Z,25.97
2022-10-12T19:09:14.688Z,25.90
2022-10-12T19:11:44.037Z,25.80
2022-10-12T19:14:15.951Z,23.00
2022-10-12T19:16:45.527Z,22.60
2022-10-12T19:19:21.184Z,21.40
2022-10-12T19:21:53.729Z,24.43
2022-10-12T19:24:22.380Z,23.07
2022-10-12T19:26:50.214Z,21.10
2022-10-12T19:29:17.956Z,18.43
2022-10-12T19:31:50.285Z,22.43
2022-10-12T19:34:22.117Z,21.40
2022-10-12T19:36:51.164Z,22.13
2022-10-12T19:39:24.334Z,21.57
2022-10-12T19:41:53.468Z,22.20
2022-10-12T19:44:21.741Z,20.70
2022-10-12T19:46:51.242Z,23.03
2022-10-12T19:49:20.044Z,21.60
2022-10-12T19:51:48.695Z,20.40
2022-10-12T19:54:16.590Z,19.40
2022-10-12T19:56:44.622Z,22.30
2022-10-12T19:59:12.945Z,20.10
2022-10-12T20:01:40.820Z,18.70
2022-10-12T20:04:12.148Z,20.73
2022-10-12T20:06:40.975Z,19.37
2022-10-12T20:09:09.902Z,19.20
2022-10-12T20:11:38.496Z,18.73
2022-10-12T20:14:07.975Z,17.57
2022-10-12T20:16:37.648Z,18.93
2022-10-12T20:19:07.365Z,17.47
2022-10-12T20:21:36.799Z,17.77
2022-10-12T20:24:07.870Z,17.80
2022-10-12T20:26:35.460Z,16.90
2022-10-12T20:29:03.089Z,17.53
2022-10-12T20:31:30.845Z,18.87
2022-10-12T20:33:58.638Z,18.50
2022-10-12T20:36:31.341Z,17.80
2022-10-12T20:39:00.377Z,16.53
2022-10-12T20:41:28.525Z,18.30
2022-10-12T20:44:01.298Z,18.27
2022-10-12T20:46:30.594Z,18.07
2022-10-12T20:49:04.273Z,16.63
2022-10-12T20:51:37.224Z,18.57
2022-10-12T20:54:08.853Z,17.83
2022-10-12T20:56:42.797Z,19.00
2022-10-12T20:59:11.808Z,17.63
2022-10-12T21:01:39.478Z,19.33
2022-10-12T21:04:07.178Z,18.43
2022-10-12T21:06:36.636Z,17.50
2022-10-12T21:09:06.538Z,19.50
2022-10-12T21:11:34.622Z,17.30
2022-10-12T21:14:02.246Z,20.73
2022-10-12T21:16:29.854Z,21.00
2022-10-12T21:18:57.736Z,23.20
2022-10-12T21:21:27.425Z,18.53
2022-10-12T21:24:01.584Z,19.50
2022-10-12T21:26:32.252Z,20.13
2022-10-12T21:29:01.091Z,18.73
2022-10-12T21:31:32.806Z,20.00
2022-10-12T21:34:08.134Z,18.10
2022-10-12T21:36:37.793Z,17.37
2022-10-12T21:39:17.429Z,18.33
2022-10-12T21:41:48.855Z,17.60
2022-10-12T21:44:17.651Z,18.00
2022-10-12T21:46:45.333Z,17.70
2022-10-12T21:49:14.077Z,16.63
2022-10-12T21:51:41.762Z,17.73
2022-10-12T21:54:09.608Z,18.63
2022-10-12T21:56:38.709Z,19.47
2022-10-12T21:59:07.633Z,19.30
2022-10-12T22:01:40.583Z,18.43
2022-10-12T22:04:15.475Z,16.20
2022-10-12T22:06:43.622Z,16.37
2022-10-12T22:09:19.212Z,16.03
2022-10-12T22:11:47.766Z,16.93
2022-10-12T22:14:24.420Z,16.80
2022-10-12T22:16:52.906Z,15.30
2022-10-12T22:19:24.226Z,15.33
2022-10-12T22:21:59.340Z,15.80
2022-10-12T22:24:32.171Z,16.30
2022-10-12T22:27:08.904Z,17.50
2022-10-12T22:29:37.727Z,16.77
2022-10-12T22:32:07.105Z,17.40
2022-10-12T22:34:36.129Z,18.00
2022-10-12T22:37:04.404Z,18.00
2022-10-12T22:39:32.662Z,18.20
2022-10-12T22:42:01.366Z,18.03
2022-10-12T22:44:32.106Z,17.47
2022-10-12T22:46:59.884Z,18.63
2022-10-12T22:49:27.694Z,18.43
2022-10-12T22:51:55.439Z,18.10
2022-10-12T22:54:23.147Z,16.70
2022-10-12T22:56:51.617Z,16.30
2022-10-12T22:59:19.195Z,18.07
2022-10-12T23:01:46.859Z,16.97
2022-10-12T23:04:14.451Z,16.23
2022-10-12T23:06:42.626Z,15.83
2022-10-12T23:09:10.437Z,18.73
2022-10-12T23:11:38.213Z,17.40
2022-10-12T23:14:06.010Z,16.50
2022-10-12T23:16:34.005Z,15.17
2022-10-12T23:19:06.414Z,15.80
2022-10-12T23:21:35.629Z,16.70
2022-10-12T23:24:06.970Z,17.13
2022-10-12T23:26:35.181Z,17.23
2022-10-12T23:29:03.042Z,17.43
2022-10-12T23:31:32.176Z,16.57
2022-10-12T23:34:06.835Z,17.80
2022-10-12T23:36:35.474Z,16.87
2022-10-12T23:39:06.041Z,18.83
2022-10-12T23:41:34.229Z,17.60
2022-10-12T23:44:01.869Z,18.30
2022-10-12T23:46:29.701Z,18.57
2022-10-12T23:49:01.031Z,17.30
2022-10-12T23:51:29.390Z,17.77
2022-10-12T23:53:57.166Z,17.47
2022-10-12T23:56:25.351Z,18.13
2022-10-12T23:58:53.479Z,19.57
